createdAt,value
2022-09-06T00:00:44.504Z,84.54
2022-09-06T00:03:46.666Z,84.24
2022-09-06T00:06:48.291Z,84.69
2022-09-06T00:09:49.883Z,84.99
2022-09-06T00:12:51.759Z,84.97
2022-09-06T00:15:53.560Z,84.59
2022-09-06T00:18:55.989Z,84.13
2022-09-06T00:21:57.678Z,84.00
2022-09-06T00:24:59.428Z,84.10
2022-09-06T00:28:03.544Z,83.91
2022-09-06T00:31:20.688Z,84.34
2022-09-06T00:34:22.595Z,86.35
2022-09-06T00:37:24.525Z,89.51
2022-09-06T00:40:27.389Z,92.01
2022-09-06T00:43:29.236Z,97.03
2022-09-06T00:46:32.721Z,98.71
2022-09-06T00:49:46.151Z,99.55
2022-09-06T00:52:50.286Z,100.00
2022-09-06T00:55:53.316Z,100.00
2022-09-06T00:58:55.076Z,100.00
2022-09-06T01:01:57.642Z,100.00
2022-09-06T01:05:00.026Z,100.00
2022-09-06T01:08:20.861Z,100.00
2022-09-06T01:11:30.272Z,100.00
2022-09-06T01:14:50.252Z,100.00
2022-09-06T01:18:17.020Z,100.00
2022-09-06T01:21:29.024Z,100.00
2022-09-06T01:24:55.678Z,100.00
2022-09-06T01:28:16.081Z,100.00
2022-09-06T01:31:36.510Z,100.00
2022-09-06T01:34:47.996Z,100.00
2022-09-06T01:37:49.919Z,100.00
2022-09-06T01:40:51.684Z,100.00
2022-09-06T01:43:54.904Z,100.00
2022-09-06T01:47:04.088Z,100.00
2022-09-06T01:50:36.909Z,100.00
2022-09-06T01:54:17.804Z,100.00
2022-09-06T01:57:51.792Z,100.00
2022-09-06T02:01:21.519Z,100.00
2022-09-06T02:04:30.049Z,100.00
2022-09-06T02:07:33.901Z,100.00
2022-09-06T02:10:43.577Z,100.00
2022-09-06T02:13:52.634Z,100.00
2022-09-06T02:16:57.716Z,100.00
2022-09-06T02:20:10.851Z,100.00
2022-09-06T02:23:13.349Z,100.00
2022-09-06T02:26:22.046Z,100.00
2022-09-06T02:29:24.123Z,100.00
2022-09-06T02:32:27.251Z,100.00
2022-09-06T02:35:29.440Z,100.00
2022-09-06T02:38:34.141Z,100.00
2022-09-06T02:41:36.177Z,100.00
2022-09-06T02:44:37.899Z,100.00
2022-09-06T02:47:39.601Z,100.00
2022-09-06T02:50:41.540Z,100.00
2022-09-06T02:53:43.345Z,100.00
2022-09-06T02:56:49.004Z,100.00
2022-09-06T02:59:53.374Z,100.00
2022-09-06T03:02:55.949Z,100.00
2022-09-06T03:05:57.695Z,100.00
2022-09-06T03:09:00.264Z,100.00
2022-09-06T03:12:02.047Z,100.00
2022-09-06T03:15:05.498Z,100.00
2022-09-06T03:18:07.725Z,100.00
2022-09-06T03:21:09.879Z,100.00
2022-09-06T03:24:11.663Z,100.00
2022-09-06T03:27:13.904Z,100.00
2022-09-06T03:30:15.779Z,100.00
2022-09-06T03:33:18.391Z,100.00
2022-09-06T03:36:20.124Z,100.00
2022-09-06T03:39:21.836Z,100.00
2022-09-06T03:42:26.368Z,100.00
2022-09-06T03:45:28.245Z,100.00
2022-09-06T03:48:30.228Z,100.00
2022-09-06T03:51:32.195Z,100.00
2022-09-06T03:54:34.175Z,100.00
2022-09-06T03:57:35.853Z,100.00
2022-09-06T04:00:37.648Z,100.00
2022-09-06T04:03:39.745Z,100.00
2022-09-06T04:06:41.849Z,100.00
2022-09-06T04:09:43.920Z,100.00
2022-09-06T04:12:45.835Z,100.00
2022-09-06T04:15:48.129Z,100.00
2022-09-06T04:18:50.016Z,100.00
2022-09-06T04:21:51.934Z,100.00
2022-09-06T04:24:53.961Z,100.00
2022-09-06T04:27:55.839Z,100.00
2022-09-06T04:31:04.066Z,100.00
2022-09-06T04:34:06.794Z,100.00
2022-09-06T04:37:08.713Z,100.00
2022-09-06T04:40:10.907Z,100.00
2022-09-06T04:43:12.722Z,99.59
2022-09-06T04:46:30.676Z,100.00
2022-09-06T04:49:32.466Z,97.79
2022-09-06T04:52:34.253Z,97.19
2022-09-06T04:55:36.151Z,94.69
2022-09-06T04:58:38.045Z,93.50
2022-09-06T05:01:39.922Z,91.58
2022-09-06T05:04:41.769Z,93.68
2022-09-06T05:08:14.961Z,96.35
2022-09-06T05:12:21.132Z,92.74
2022-09-06T05:15:23.603Z,96.52
2022-09-06T05:18:25.315Z,92.53
2022-09-06T05:21:27.124Z,90.34
2022-09-06T05:24:28.890Z,92.08
2022-09-06T05:27:30.720Z,92.15
2022-09-06T05:30:32.552Z,91.05
2022-09-06T05:33:34.491Z,90.38
2022-09-06T05:36:36.325Z,90.87
2022-09-06T05:39:38.107Z,90.55
2022-09-06T05:42:41.253Z,93.31
2022-09-06T05:45:43.396Z,92.19
2022-09-06T05:48:52.120Z,89.79
2022-09-06T05:51:53.756Z,93.55
2022-09-06T05:54:55.653Z,94.53
2022-09-06T05:57:57.293Z,93.52
2022-09-06T06:01:17.874Z,99.76
2022-09-06T06:04:21.778Z,100.00
2022-09-06T06:07:23.844Z,100.00
2022-09-06T06:10:25.894Z,100.00
2022-09-06T06:13:30.104Z,100.00
2022-09-06T06:16:31.925Z,100.00
2022-09-06T06:19:33.689Z,100.00
2022-09-06T06:22:35.545Z,100.00
2022-09-06T06:25:37.320Z,100.00
2022-09-06T06:28:39.954Z,100.00
2022-09-06T06:31:42.868Z,100.00
2022-09-06T06:34:44.706Z,100.00
2022-09-06T06:37:46.343Z,100.00
2022-09-06T06:40:48.092Z,100.00
2022-09-06T06:43:53.924Z,100.00
2022-09-06T06:46:57.911Z,100.00
2022-09-06T06:49:59.962Z,100.00
2022-09-06T06:53:02.796Z,100.00
2022-09-06T06:56:27.888Z,100.00
2022-09-06T06:59:30.014Z,100.00
2022-09-06T07:02:32.105Z,100.00
2022-09-06T07:09:02.351Z,100.00
2022-09-06T07:12:04.345Z,100.00
2022-09-06T07:15:06.342Z,100.00
2022-09-06T07:18:08.244Z,100.00
2022-09-06T07:21:37.577Z,100.00
2022-09-06T07:24:39.868Z,100.00
2022-09-06T07:27:47.529Z,100.00
2022-09-06T07:30:53.963Z,100.00
2022-09-06T07:33:55.839Z,100.00
2022-09-06T07:36:57.664Z,100.00
2022-09-06T07:39:59.466Z,100.00
2022-09-06T07:43:01.364Z,100.00
2022-09-06T07:46:13.569Z,100.00
2022-09-06T07:49:15.411Z,100.00
2022-09-06T07:55:39.250Z,100.00
2022-09-06T07:58:41.320Z,100.00
2022-09-06T08:01:43.361Z,100.00
2022-09-06T08:04:48.642Z,100.00
2022-09-06T08:11:15.327Z,100.00
2022-09-06T08:14:17.170Z,100.00
2022-09-06T08:17:19.010Z,100.00
2022-09-06T08:20:20.931Z,100.00
2022-09-06T08:23:22.794Z,100.00
2022-09-06T08:26:26.109Z,100.00
2022-09-06T08:29:28.085Z,100.00
2022-09-06T08:32:33.540Z,100.00
2022-09-06T08:35:35.330Z,98.87
2022-09-06T08:38:37.955Z,98.08
2022-09-06T08:42:03.819Z,96.94
2022-09-06T08:45:09.480Z,93.46
2022-09-06T08:48:11.474Z,93.20
2022-09-06T08:51:51.661Z,92.34
2022-09-06T08:55:23.445Z,87.10
2022-09-06T08:58:49.069Z,86.87
2022-09-06T09:02:13.017Z,83.98
2022-09-06T09:05:40.196Z,83.34
2022-09-06T09:09:01.851Z,81.60
2022-09-06T09:12:03.828Z,80.96
2022-09-06T09:15:10.165Z,79.64
2022-09-06T09:18:12.033Z,78.68
2022-09-06T09:21:17.189Z,74.79
2022-09-06T09:24:18.976Z,73.93
2022-09-06T09:27:28.419Z,71.66
2022-09-06T09:30:48.771Z,72.59
2022-09-06T09:33:51.479Z,70.51
2022-09-06T09:40:53.789Z,69.03
2022-09-06T09:44:17.812Z,69.95
2022-09-06T09:47:33.177Z,69.53
2022-09-06T09:50:35.842Z,68.60
2022-09-06T09:53:50.806Z,68.38
2022-09-06T09:56:52.990Z,68.11
2022-09-06T10:00:01.708Z,68.37
2022-09-06T10:03:30.079Z,68.18
2022-09-06T10:10:01.837Z,72.39
2022-09-06T10:13:26.754Z,71.26
2022-09-06T10:16:43.550Z,69.72
2022-09-06T10:19:46.548Z,68.43
2022-09-06T10:23:13.112Z,66.47
2022-09-06T10:26:29.296Z,68.59
2022-09-06T10:29:53.245Z,65.03
2022-09-06T10:33:05.177Z,64.62
2022-09-06T10:36:08.137Z,64.19
2022-09-06T10:39:28.549Z,63.95
2022-09-06T10:42:49.454Z,64.90
2022-09-06T10:46:09.554Z,63.77
2022-09-06T10:49:16.943Z,64.20
2022-09-06T10:52:43.611Z,63.09
2022-09-06T10:56:14.406Z,64.57
2022-09-06T10:59:41.669Z,65.71
2022-09-06T11:06:40.335Z,64.71
2022-09-06T11:09:46.275Z,63.04
2022-09-06T11:13:10.016Z,61.54
2022-09-06T11:16:32.737Z,58.59
2022-09-06T11:20:13.253Z,58.51
2022-09-06T11:23:39.740Z,58.97
2022-09-06T11:27:11.856Z,59.49
2022-09-06T11:30:15.798Z,58.23
2022-09-06T11:33:27.660Z,57.68
2022-09-06T11:36:46.692Z,57.82
2022-09-06T11:40:32.371Z,57.76
2022-09-06T11:43:51.764Z,59.04
2022-09-06T11:47:01.065Z,59.27
2022-09-06T11:50:53.946Z,59.96
2022-09-06T11:54:06.582Z,59.39
2022-09-06T11:57:08.213Z,58.60
2022-09-06T12:00:19.880Z,59.61
2022-09-06T12:04:06.171Z,58.54
2022-09-06T12:07:11.803Z,58.36
2022-09-06T12:10:31.814Z,58.24
2022-09-06T12:13:45.712Z,57.85
2022-09-06T12:17:11.562Z,55.73
2022-09-06T12:20:48.118Z,54.54
2022-09-06T12:23:49.985Z,55.01
2022-09-06T12:27:08.410Z,55.65
2022-09-06T12:30:13.747Z,54.43
2022-09-06T12:33:27.696Z,53.90
2022-09-06T12:36:33.176Z,53.60
2022-09-06T12:39:37.742Z,52.87
2022-09-06T12:42:47.715Z,53.12
2022-09-06T12:45:52.511Z,52.66
2022-09-06T12:49:12.276Z,52.92
2022-09-06T12:52:19.043Z,52.56
2022-09-06T12:55:38.739Z,52.39
2022-09-06T12:58:41.002Z,51.70
2022-09-06T13:02:13.823Z,52.87
2022-09-06T13:05:15.748Z,51.07
2022-09-06T13:08:39.973Z,50.12
2022-09-06T13:11:52.225Z,49.92
2022-09-06T13:15:01.119Z,48.55
2022-09-06T13:18:23.998Z,49.23
2022-09-06T13:21:33.182Z,48.43
2022-09-06T13:24:35.376Z,48.74
2022-09-06T13:27:37.719Z,48.71
2022-09-06T13:30:49.541Z,47.15
2022-09-06T13:33:59.550Z,46.88
2022-09-06T13:37:10.749Z,47.75
2022-09-06T13:41:16.111Z,47.53
2022-09-06T13:44:21.981Z,47.03
2022-09-06T13:47:28.849Z,46.57
2022-09-06T13:50:30.790Z,46.69
2022-09-06T13:53:33.935Z,47.69
2022-09-06T13:56:39.290Z,46.70
2022-09-06T13:59:42.829Z,45.83
2022-09-06T14:02:46.618Z,46.17
2022-09-06T14:05:48.936Z,45.95
2022-09-06T14:09:06.303Z,44.92
2022-09-06T14:12:10.209Z,44.97
2022-09-06T14:15:13.435Z,44.57
2022-09-06T14:18:16.521Z,44.65
2022-09-06T14:21:18.244Z,45.93
2022-09-06T14:24:20.154Z,43.66
2022-09-06T14:27:22.350Z,44.75
2022-09-06T14:30:24.435Z,44.46
2022-09-06T14:33:26.164Z,43.88
2022-09-06T14:36:29.823Z,44.38
2022-09-06T14:39:31.613Z,44.80
2022-09-06T14:42:33.466Z,44.43
2022-09-06T14:45:35.886Z,44.00
2022-09-06T14:48:41.623Z,44.72
2022-09-06T14:51:45.958Z,43.39
2022-09-06T14:54:47.956Z,43.57
2022-09-06T14:57:50.193Z,43.43
2022-09-06T15:00:52.820Z,44.10
2022-09-06T15:04:00.133Z,43.61
2022-09-06T15:07:02.056Z,44.54
2022-09-06T15:10:05.036Z,44.76
2022-09-06T15:13:06.770Z,44.55
2022-09-06T15:16:10.465Z,43.85
2022-09-06T15:19:13.097Z,43.58
2022-09-06T15:22:14.730Z,43.14
2022-09-06T15:25:16.743Z,43.11
2022-09-06T15:28:19.764Z,42.99
2022-09-06T15:31:21.727Z,43.80
2022-09-06T15:34:25.141Z,44.48
2022-09-06T15:37:27.053Z,43.48
2022-09-06T15:40:28.825Z,43.78
2022-09-06T15:43:32.988Z,44.46
2022-09-06T15:46:34.641Z,44.01
2022-09-06T15:49:37.418Z,44.62
2022-09-06T15:52:39.396Z,44.21
2022-09-06T15:55:59.928Z,43.69
2022-09-06T15:59:01.955Z,44.71
2022-09-06T16:02:03.839Z,45.41
2022-09-06T16:05:06.353Z,44.33
2022-09-06T16:08:08.374Z,44.76
2022-09-06T16:11:13.871Z,45.30
2022-09-06T16:14:16.726Z,45.48
2022-09-06T16:17:18.456Z,45.79
2022-09-06T16:20:20.394Z,46.21
2022-09-06T16:23:22.751Z,47.52
2022-09-06T16:26:26.952Z,46.65
2022-09-06T16:29:28.739Z,47.22
2022-09-06T16:32:30.678Z,47.31
2022-09-06T16:35:32.532Z,48.02
2022-09-06T16:38:35.075Z,47.87
2022-09-06T16:41:40.861Z,48.79
2022-09-06T16:44:43.201Z,48.80
2022-09-06T16:47:46.725Z,49.50
2022-09-06T16:50:48.709Z,49.74
2022-09-06T16:53:51.980Z,50.04
2022-09-06T16:56:54.101Z,50.74
2022-09-06T16:59:55.866Z,51.43
2022-09-06T17:02:58.751Z,51.58
2022-09-06T17:06:00.651Z,52.59
2022-09-06T17:09:02.441Z,52.93
2022-09-06T17:12:04.921Z,54.00
2022-09-06T17:15:07.405Z,54.83
2022-09-06T17:18:09.149Z,55.88
2022-09-06T17:21:11.602Z,56.96
2022-09-06T17:24:13.538Z,57.93
2022-09-06T17:27:15.993Z,58.18
2022-09-06T17:30:17.855Z,58.56
2022-09-06T17:33:21.233Z,59.25
2022-09-06T17:36:25.178Z,59.91
2022-09-06T17:39:26.936Z,61.75
2022-09-06T17:42:31.779Z,61.85
2022-09-06T17:45:43.009Z,63.14
2022-09-06T17:48:44.813Z,63.54
2022-09-06T17:51:47.260Z,64.77
2022-09-06T17:54:49.308Z,66.48
2022-09-06T17:57:50.999Z,67.27
2022-09-06T18:00:52.945Z,68.45
2022-09-06T18:03:54.733Z,69.40
2022-09-06T18:06:56.447Z,69.81
2022-09-06T18:09:58.698Z,70.52
2022-09-06T18:13:00.372Z,69.67
2022-09-06T18:16:03.639Z,69.99
2022-09-06T18:19:07.647Z,70.18
2022-09-06T18:22:09.638Z,70.75
2022-09-06T18:25:11.427Z,70.28
2022-09-06T18:28:13.152Z,70.27
2022-09-06T18:31:18.312Z,70.95
2022-09-06T18:34:20.103Z,71.57
2022-09-06T18:37:21.985Z,71.92
2022-09-06T18:40:23.631Z,72.96
2022-09-06T18:43:31.966Z,71.86
2022-09-06T18:46:36.262Z,72.80
2022-09-06T18:49:43.220Z,72.43
2022-09-06T18:52:45.606Z,73.30
2022-09-06T18:55:51.788Z,73.11
2022-09-06T18:59:02.087Z,74.36
2022-09-06T19:02:04.162Z,74.16
2022-09-06T19:05:06.341Z,74.02
2022-09-06T19:08:08.054Z,73.89
2022-09-06T19:11:17.099Z,76.14
2022-09-06T19:14:19.148Z,77.82
2022-09-06T19:17:21.020Z,78.35
2022-09-06T19:20:23.586Z,79.59
2022-09-06T19:23:26.860Z,79.79
2022-09-06T19:26:31.622Z,80.22
2022-09-06T19:29:33.705Z,79.94
2022-09-06T19:32:35.673Z,81.68
2022-09-06T19:35:43.745Z,82.73
2022-09-06T19:39:05.003Z,84.80
2022-09-06T19:42:07.474Z,85.87
2022-09-06T19:45:09.699Z,86.46
2022-09-06T19:48:11.734Z,87.37
2022-09-06T19:51:20.232Z,87.28
2022-09-06T19:54:22.172Z,88.35
2022-09-06T19:57:23.815Z,88.81
2022-09-06T20:00:27.164Z,89.92
2022-09-06T20:03:29.031Z,90.04
2022-09-06T20:06:31.067Z,90.01
2022-09-06T20:09:33.054Z,90.77
2022-09-06T20:12:34.937Z,90.60
2022-09-06T20:15:37.717Z,91.17
2022-09-06T20:18:40.253Z,91.90
2022-09-06T20:21:42.645Z,91.91
2022-09-06T20:24:44.527Z,92.88
2022-09-06T20:27:46.191Z,93.89
2022-09-06T20:30:49.123Z,93.11
2022-09-06T20:33:50.865Z,93.35
2022-09-06T20:36:52.440Z,93.77
2022-09-06T20:39:55.687Z,93.42
2022-09-06T20:42:57.672Z,94.50
2022-09-06T20:46:00.369Z,94.03
2022-09-06T20:49:05.457Z,94.79
2022-09-06T20:52:07.415Z,95.23
2022-09-06T20:55:10.001Z,94.30
2022-09-06T20:58:11.786Z,95.38
2022-09-06T21:01:16.018Z,95.27
2022-09-06T21:04:17.742Z,95.34
2022-09-06T21:07:19.476Z,94.42
2022-09-06T21:10:22.297Z,93.76
2022-09-06T21:13:25.389Z,95.33
2022-09-06T21:16:29.144Z,95.82
2022-09-06T21:19:31.093Z,94.84
2022-09-06T21:22:33.153Z,94.13
2022-09-06T21:25:36.184Z,94.92
2022-09-06T21:28:40.942Z,94.80
2022-09-06T21:31:42.990Z,94.56
2022-09-06T21:34:44.651Z,95.24
2022-09-06T21:37:46.556Z,95.62
2022-09-06T21:40:48.654Z,96.65
2022-09-06T21:43:58.425Z,95.65
2022-09-06T21:47:00.595Z,96.87
2022-09-06T21:50:02.330Z,98.59
2022-09-06T21:53:03.869Z,97.84
2022-09-06T21:56:06.583Z,98.00
2022-09-06T21:59:08.898Z,98.51
2022-09-06T22:02:11.121Z,98.73
2022-09-06T22:05:12.960Z,98.43
2022-09-06T22:08:14.737Z,98.59
2022-09-06T22:11:26.281Z,98.10
2022-09-06T22:14:28.132Z,98.91
2022-09-06T22:17:29.876Z,98.96
2022-09-06T22:20:31.721Z,99.47
2022-09-06T22:23:33.886Z,99.76
2022-09-06T22:26:37.142Z,100.00
2022-09-06T22:29:38.955Z,99.86
2022-09-06T22:32:41.614Z,100.00
2022-09-06T22:35:43.469Z,99.94
2022-09-06T22:38:45.085Z,99.38
2022-09-06T22:41:47.086Z,99.95
2022-09-06T22:44:49.823Z,100.00
2022-09-06T22:47:51.606Z,100.00
2022-09-06T22:50:53.374Z,99.43
2022-09-06T22:53:55.355Z,100.00
2022-09-06T22:56:57.606Z,100.00
2022-09-06T23:00:00.296Z,99.55
2022-09-06T23:03:02.006Z,99.89
2022-09-06T23:06:04.188Z,99.98
2022-09-06T23:09:06.502Z,99.96
2022-09-06T23:12:08.336Z,99.56
2022-09-06T23:15:10.063Z,100.00
2022-09-06T23:18:12.218Z,100.00
2022-09-06T23:21:23.519Z,100.00
2022-09-06T23:24:25.997Z,100.00
2022-09-06T23:27:27.892Z,100.00
2022-09-06T23:30:30.153Z,100.00
2022-09-06T23:33:35.074Z,100.00
2022-09-06T23:36:36.925Z,100.00
2022-09-06T23:39:38.707Z,100.00
2022-09-06T23:42:40.392Z,100.00
2022-09-06T23:45:42.321Z,100.00
2022-09-06T23:48:44.354Z,100.00
2022-09-06T23:51:46.233Z,100.00
2022-09-06T23:54:48.029Z,100.00
2022-09-06T23:57:51.150Z,100.00
